Time;durP1;ratioP1;P1;durP2;ratioP2;P2;SDS_P1;SDS_P2;PMS_P1;PMS_P2;Temp;Humidity;BMP_temperature;BMP_pressure;BME280_temperature;BME280_humidity;BME280_pressure;Samples;Min_cycle;Max_cycle;Signal;HPM_P1;HPM_P2
2023/08/28 04:22:33;;;;;;;4.28;2.85;;;;;;;13.72;100.00;99753.59;5089439;28;20328;-69
2023/08/28 04:25:00;;;;;;;7.25;3.20;;;;;;;13.71;100.00;99757.31;5089599;28;20070;-70
2023/08/28 04:27:26;;;;;;;6.45;3.20;;;;;;;13.72;100.00;99754.44;5089486;28;20067;-69
2023/08/28 04:29:51;;;;;;;6.13;3.40;;;;;;;13.74;100.00;99756.91;5087681;28;20046;-70
2023/08/28 04:32:16;;;;;;;7.28;3.50;;;;;;;13.77;100.00;99754.66;5088070;28;20056;-70
2023/08/28 04:34:43;;;;;;;10.35;3.70;;;;;;;13.76;100.00;99750.31;5089234;28;20115;-70
2023/08/28 04:37:08;;;;;;;4.03;2.67;;;;;;;13.80;100.00;99748.03;5089214;28;20118;-70
2023/08/28 04:39:34;;;;;;;4.45;3.03;;;;;;;13.82;100.00;99754.84;5087711;28;20052;-70
2023/08/28 04:41:59;;;;;;;4.93;3.17;;;;;;;13.82;100.00;99754.84;5088964;28;20032;-69
2023/08/28 04:44:24;;;;;;;4.35;3.00;;;;;;;13.83;100.00;99750.31;5087769;28;20450;-70
2023/08/28 04:46:50;;;;;;;3.90;2.90;;;;;;;13.80;100.00;99746.19;5093232;28;20028;-69
2023/08/28 04:49:16;;;;;;;4.72;2.80;;;;;;;13.82;100.00;99744.16;5089174;28;20146;-69
2023/08/28 04:51:42;;;;;;;4.43;2.60;;;;;;;13.82;100.00;99735.25;5087758;28;20040;-69
2023/08/28 04:54:09;;;;;;;7.17;2.53;;;;;;;13.85;100.00;99743.72;5087821;28;20047;-70
2023/08/28 04:56:34;;;;;;;4.03;2.88;;;;;;;13.88;100.00;99741.66;5087490;28;20048;-70
2023/08/28 04:59:00;;;;;;;4.15;2.97;;;;;;;13.84;100.00;99742.09;5087166;28;20077;-70
2023/08/28 05:01:26;;;;;;;4.38;2.78;;;;;;;13.83;100.00;99740.44;5087448;28;20033;-70
2023/08/28 05:03:51;;;;;;;4.40;2.85;;;;;;;13.81;100.00;99745.16;5086815;28;20045;-70
2023/08/28 05:06:17;;;;;;;4.70;2.58;;;;;;;13.83;100.00;99740.44;5087148;28;20044;-70
2023/08/28 05:08:42;;;;;;;6.63;3.13;;;;;;;13.87;100.00;99742.69;5087196;28;20048;-70
2023/08/28 05:11:07;;;;;;;5.13;2.80;;;;;;;13.84;100.00;99734.03;5088343;28;20124;-71
2023/08/28 05:13:33;;;;;;;3.63;2.50;;;;;;;13.89;100.00;99732.59;5087189;28;20131;-70
2023/08/28 05:15:58;;;;;;;5.60;2.80;;;;;;;13.95;100.00;99732.56;5087055;28;20072;-70
2023/08/28 05:18:25;;;;;;;4.22;2.80;;;;;;;13.91;100.00;99730.53;5087340;28;20040;-70
2023/08/28 05:20:50;;;;;;;6.72;3.45;;;;;;;13.97;100.00;99740.44;5086727;28;20043;-69
2023/08/28 05:23:15;;;;;;;6.03;2.92;;;;;;;14.01;100.00;99741.63;5087212;28;20036;-70
2023/08/28 05:25:41;;;;;;;4.53;2.78;;;;;;;13.99;100.00;99743.72;5088269;28;20046;-70
2023/08/28 05:28:06;;;;;;;4.22;2.60;;;;;;;14.02;100.00;99744.13;5086895;28;20548;-69
2023/08/28 05:30:32;;;;;;;4.00;2.65;;;;;;;14.03;100.00;99745.78;5086602;28;20051;-71
2023/08/28 05:32:58;;;;;;;9.35;3.28;;;;;;;14.03;100.00;99745.78;5078592;28;20082;-70
2023/08/28 05:35:23;;;;;;;5.25;2.78;;;;;;;14.06;100.00;99747.19;5074584;28;20032;-71
2023/08/28 05:37:50;;;;;;;5.10;2.47;;;;;;;14.08;100.00;99743.31;5073308;28;20036;-70
2023/08/28 05:40:16;;;;;;;5.18;2.80;;;;;;;14.08;100.00;99737.09;5073076;28;20079;-71
2023/08/28 05:42:45;;;;;;;4.70;2.97;;;;;;;14.12;100.00;99741.00;5074470;28;20048;-69
2023/08/28 05:45:10;;;;;;;4.50;2.78;;;;;;;14.17;100.00;99748.44;5073094;28;20047;-70
2023/08/28 05:47:36;;;;;;;3.40;2.70;;;;;;;14.18;100.00;99750.06;5073048;28;20032;-70
2023/08/28 05:50:05;;;;;;;4.07;3.08;;;;;;;14.22;100.00;99749.47;5074199;28;20545;-70
2023/08/28 05:52:30;;;;;;;6.07;3.20;;;;;;;14.26;100.00;99758.72;5073046;28;20048;-67
2023/08/28 05:54:56;;;;;;;5.47;3.03;;;;;;;14.29;100.00;99754.81;5073048;28;20033;-66
2023/08/28 05:57:23;;;;;;;4.90;3.33;;;;;;;14.27;100.00;99755.00;5072782;28;20407;-66
2023/08/28 05:59:52;;;;;;;7.05;3.63;;;;;;;14.31;100.00;99753.56;5072671;28;20036;-66
2023/08/28 06:02:17;;;;;;;6.32;3.67;;;;;;;14.30;100.00;99759.94;5074094;28;20388;-67
2023/08/28 06:04:55;;;;;;;6.75;3.38;;;;;;;14.34;100.00;99758.50;5072811;28;20059;-58
2023/08/28 06:07:21;;;;;;;4.38;2.95;;;;;;;14.32;100.00;99757.88;5074080;28;20032;-54
2023/08/28 06:09:46;;;;;;;5.22;3.20;;;;;;;14.34;100.00;99753.16;5072428;28;20035;-57
2023/08/28 06:12:12;;;;;;;4.90;3.80;;;;;;;14.39;100.00;99756.00;5072638;28;20037;-56
2023/08/28 06:14:37;;;;;;;8.02;3.60;;;;;;;14.42;100.00;99756.63;5072920;28;20127;-57
2023/08/28 06:17:06;;;;;;;6.90;3.58;;;;;;;14.43;100.00;99755.59;5072506;28;20051;-57
2023/08/28 06:19:31;;;;;;;6.50;4.20;;;;;;;14.43;100.00;99747.56;5072265;28;20047;-54
2023/08/28 06:22:02;;;;;;;6.75;3.65;;;;;;;14.46;100.00;99739.94;5072302;28;20483;-58
2023/08/28 06:24:28;;;;;;;5.57;3.90;;;;;;;14.46;100.00;99731.91;5072460;28;20120;-58
2023/08/28 06:26:53;;;;;;;6.32;4.00;;;;;;;14.51;100.00;99745.50;5072328;28;20437;-55
2023/08/28 06:29:19;;;;;;;6.00;3.83;;;;;;;14.53;100.00;99729.19;5073373;28;20090;-57
2023/08/28 06:31:44;;;;;;;5.18;3.55;;;;;;;14.56;100.00;99726.94;5072361;28;20067;-56
2023/08/28 06:34:09;;;;;;;8.60;3.67;;;;;;;14.53;100.00;99723.84;5073683;28;20439;-57
2023/08/28 06:36:35;;;;;;;4.82;3.42;;;;;;;14.58;100.00;99721.34;5073528;28;20491;-67
2023/08/28 06:39:00;;;;;;;5.80;3.40;;;;;;;14.57;100.00;99707.13;5073116;28;20048;-66
2023/08/28 06:41:26;;;;;;;5.93;3.67;;;;;;;14.61;100.00;99700.31;5073491;28;20086;-66
2023/08/28 06:43:51;;;;;;;5.93;3.67;;;;;;;14.63;100.00;99697.41;5072651;28;20060;-66
2023/08/28 06:46:16;;;;;;;6.45;3.92;;;;;;;14.65;100.00;99695.34;5071902;28;20468;-66
2023/08/28 06:48:45;;;;;;;7.18;3.95;;;;;;;14.64;100.00;99697.22;5073279;28;20051;-66
2023/08/28 06:51:11;;;;;;;6.63;3.83;;;;;;;14.69;100.00;99709.97;5073031;28;20037;-67
2023/08/28 06:53:37;;;;;;;7.35;4.30;;;;;;;14.69;100.00;99714.53;5073076;28;20082;-67
2023/08/28 06:56:03;;;;;;;13.55;4.47;;;;;;;14.66;100.00;99713.06;5073087;28;20449;-66
2023/08/28 06:58:29;;;;;;;9.90;4.40;;;;;;;14.67;100.00;99704.00;5073013;28;20072;-67
2023/08/28 07:00:54;;;;;;;9.38;4.60;;;;;;;14.69;100.00;99707.28;5072822;28;20150;-66
2023/08/28 07:03:20;;;;;;;6.55;3.78;;;;;;;14.72;100.00;99709.53;5073064;28;20040;-66
2023/08/28 07:05:45;;;;;;;6.88;4.10;;;;;;;14.74;100.00;99699.44;5072940;28;20054;-66
2023/08/28 07:08:11;;;;;;;6.20;4.47;;;;;;;14.76;100.00;99700.03;5072891;28;20040;-67
2023/08/28 07:10:36;;;;;;;6.65;4.03;;;;;;;14.77;100.00;99696.31;5072486;28;20036;-65
2023/08/28 07:13:02;;;;;;;6.25;4.07;;;;;;;14.80;100.00;99693.22;5072925;28;20037;-65
2023/08/28 07:15:30;;;;;;;11.50;4.78;;;;;;;14.86;100.00;99695.03;5072772;28;20048;-65
2023/08/28 07:17:56;;;;;;;6.95;4.15;;;;;;;14.85;100.00;99685.34;5072789;28;20566;-64
2023/08/28 07:20:23;;;;;;;7.32;4.75;;;;;;;14.96;100.00;99683.03;5072348;28;20118;-66
2023/08/28 07:22:49;;;;;;;7.00;4.97;;;;;;;15.00;100.00;99686.94;5072627;28;20051;-65
2023/08/28 07:25:16;;;;;;;7.97;4.85;;;;;;;15.07;100.00;99685.03;5072464;28;20040;-65
2023/08/28 07:27:42;;;;;;;8.80;5.47;;;;;;;15.07;100.00;99701.94;5072560;28;20040;-67
2023/08/28 07:30:08;;;;;;;5.30;4.50;;;;;;;15.03;100.00;99710.63;5072192;28;20043;-66
2023/08/28 07:32:33;;;;;;;9.48;5.35;;;;;;;15.03;100.00;99722.19;5072473;28;20033;-66
2023/08/28 07:35:00;;;;;;;7.13;4.70;;;;;;;15.03;100.00;99714.13;5072418;28;20101;-66
2023/08/28 07:37:29;;;;;;;9.60;4.30;;;;;;;15.07;100.00;99720.72;5072245;28;20438;-65
2023/08/28 07:39:54;;;;;;;8.45;4.03;;;;;;;15.05;100.00;99721.97;5072030;28;20434;-65
2023/08/28 07:42:20;;;;;;;5.63;3.80;;;;;;;15.10;100.00;99724.81;5072240;28;20123;-65
2023/08/28 07:44:46;;;;;;;5.47;3.40;;;;;;;15.03;100.00;99730.22;5072291;28;20040;-65
2023/08/28 07:47:12;;;;;;;10.00;3.70;;;;;;;15.08;100.00;99741.13;5072171;28;20119;-65
2023/08/28 07:49:38;;;;;;;10.88;5.07;;;;;;;15.16;100.00;99740.88;5071927;28;20119;-65
2023/08/28 07:52:04;;;;;;;6.90;3.47;;;;;;;15.17;100.00;99722.91;5072100;28;20040;-66
2023/08/28 07:54:29;;;;;;;5.47;3.55;;;;;;;15.24;100.00;99709.47;5072188;28;20043;-66
2023/08/28 07:56:55;;;;;;;5.15;3.38;;;;;;;15.26;100.00;99702.88;5071694;28;20187;-66
2023/08/28 07:59:20;;;;;;;6.18;3.20;;;;;;;15.18;100.00;99703.09;5071790;28;20044;-66
2023/08/28 08:01:45;;;;;;;4.18;3.17;;;;;;;15.29;100.00;99710.47;5072220;28;20063;-66
2023/08/28 08:04:11;;;;;;;5.32;2.95;;;;;;;15.31;100.00;99718.28;5072235;28;20675;-65
2023/08/28 08:06:36;;;;;;;5.28;3.17;;;;;;;15.36;100.00;99734.56;5072001;28;20048;-65
2023/08/28 08:09:01;;;;;;;6.43;3.30;;;;;;;15.34;100.00;99726.75;5071704;28;20563;-66
2023/08/28 08:11:27;;;;;;;3.95;3.20;;;;;;;15.37;100.00;99720.09;5071925;28;20040;-65
2023/08/28 08:13:52;;;;;;;4.38;2.83;;;;;;;15.46;100.00;99730.38;5071898;28;20495;-66
2023/08/28 08:16:17;;;;;;;4.95;3.15;;;;;;;15.51;100.00;99726.19;5071840;28;20078;-66
2023/08/28 08:18:43;;;;;;;5.95;3.30;;;;;;;15.48;100.00;99728.28;5071864;28;20621;-66
2023/08/28 08:21:08;;;;;;;5.50;3.10;;;;;;;15.55;100.00;99727.41;5071841;28;20119;-65
2023/08/28 08:23:34;;;;;;;6.43;2.97;;;;;;;15.51;100.00;99723.53;5071879;28;20032;-65
2023/08/28 08:25:59;;;;;;;4.43;2.47;;;;;;;15.55;100.00;99738.97;5071794;28;20094;-66
2023/08/28 08:28:24;;;;;;;4.38;2.88;;;;;;;15.54;100.00;99736.53;5071759;28;20044;-64
2023/08/28 08:30:50;;;;;;;4.57;3.35;;;;;;;15.59;100.00;99728.66;5071519;28;20131;-66
2023/08/28 08:33:15;;;;;;;4.80;2.85;;;;;;;15.61;100.00;99726.56;5071742;28;20040;-66
2023/08/28 08:35:40;;;;;;;5.32;3.13;;;;;;;15.57;100.00;99731.53;5071558;28;20037;-66
2023/08/28 08:38:06;;;;;;;4.85;3.40;;;;;;;15.66;100.00;99738.31;5070588;28;20080;-65
2023/08/28 08:40:33;;;;;;;5.30;3.13;;;;;;;15.65;100.00;99743.91;5071402;28;20041;-65
2023/08/28 08:42:59;;;;;;;7.05;3.38;;;;;;;15.63;100.00;99767.44;5071653;28;20071;-66
2023/08/28 08:45:28;;;;;;;5.25;3.30;;;;;;;15.65;100.00;99758.16;5071615;28;20082;-66
2023/08/28 08:47:58;;;;;;;3.40;2.80;;;;;;;15.56;100.00;99747.84;5071661;28;20052;-65
2023/08/28 08:50:24;;;;;;;5.15;3.10;;;;;;;15.64;100.00;99743.06;5071225;28;20074;-65
2023/08/28 08:52:50;;;;;;;6.05;3.30;;;;;;;15.68;100.00;99748.81;5071704;28;20036;-65
2023/08/28 08:55:28;;;;;;;4.93;3.05;;;;;;;15.73;100.00;99754.38;5071553;28;20040;-66
2023/08/28 08:57:57;;;;;;;4.95;2.92;;;;;;;15.80;100.00;99757.00;5071276;28;20041;-66
2023/08/28 09:00:23;;;;;;;5.63;3.03;;;;;;;15.79;100.00;99753.50;5071291;28;20032;-66
2023/08/28 09:02:51;;;;;;;4.35;3.13;;;;;;;15.74;100.00;99750.66;5071496;28;20123;-66
2023/08/28 09:05:18;;;;;;;4.18;2.85;;;;;;;15.79;100.00;99758.88;5071321;28;20036;-65
2023/08/28 09:07:45;;;;;;;4.60;2.92;;;;;;;15.84;100.00;99768.94;5072632;28;20035;-66
2023/08/28 09:10:12;;;;;;;4.05;2.88;;;;;;;15.90;100.00;99768.88;5074967;28;20040;-65
2023/08/28 09:12:38;;;;;;;4.30;2.72;;;;;;;15.92;100.00;99766.00;5075054;28;20048;-65
2023/08/28 09:15:04;;;;;;;4.35;2.55;;;;;;;15.95;100.00;99766.38;5074878;28;20091;-66
2023/08/28 09:17:30;;;;;;;4.20;2.38;;;;;;;15.96;100.00;99768.00;5075024;28;20105;-66
2023/08/28 09:19:55;;;;;;;4.03;2.42;;;;;;;16.01;100.00;99768.16;5074836;28;20127;-66
2023/08/28 09:22:25;;;;;;;4.22;2.60;;;;;;;16.07;100.00;99760.28;5074814;28;20044;-64
2023/08/28 09:24:52;;;;;;;4.13;2.47;;;;;;;16.10;100.00;99770.56;5075020;28;20384;-65
2023/08/28 09:27:18;;;;;;;4.13;2.60;;;;;;;16.22;100.00;99779.56;5071608;28;20488;-66
2023/08/28 09:29:43;;;;;;;3.30;2.65;;;;;;;16.29;100.00;99777.63;5065037;28;20313;-66
2023/08/28 09:32:09;;;;;;;3.15;2.58;;;;;;;16.35;100.00;99784.81;5064506;28;20487;-67
2023/08/28 09:34:39;;;;;;;2.95;2.65;;;;;;;16.36;100.00;99786.44;5063751;28;20052;-67
2023/08/28 09:37:09;;;;;;;3.55;2.80;;;;;;;16.41;100.00;99780.41;5064062;28;20044;-67
2023/08/28 09:39:40;;;;;;;3.67;2.28;;;;;;;16.42;100.00;99784.75;5064995;28;20127;-65
2023/08/28 09:42:08;;;;;;;3.08;2.50;;;;;;;16.47;100.00;99790.28;5063857;28;20025;-67
2023/08/28 09:44:36;;;;;;;3.53;2.17;;;;;;;16.50;100.00;99785.28;5063411;28;20518;-67
2023/08/28 09:47:02;;;;;;;5.43;2.65;;;;;;;16.55;100.00;99776.53;5063377;28;20036;-66
2023/08/28 09:49:28;;;;;;;3.08;2.13;;;;;;;16.55;100.00;99760.41;5064513;28;20033;-66
2023/08/28 09:51:58;;;;;;;2.80;2.28;;;;;;;16.62;100.00;99769.22;5065130;28;20534;-66
2023/08/28 09:54:24;;;;;;;2.50;1.88;;;;;;;16.65;100.00;99766.09;5064061;28;20033;-66
2023/08/28 09:56:51;;;;;;;3.08;2.20;;;;;;;16.74;100.00;99759.38;5063998;28;20032;-68
2023/08/28 09:59:20;;;;;;;3.85;2.10;;;;;;;16.79;100.00;99750.66;5063432;28;20047;-67
2023/08/28 10:01:47;;;;;;;2.90;2.08;;;;;;;16.89;100.00;99737.50;5033259;28;20491;-67
2023/08/28 10:04:14;;;;;;;2.92;2.00;;;;;;;16.95;100.00;99733.06;5063552;28;20057;-67
2023/08/28 10:06:44;;;;;;;3.45;1.80;;;;;;;17.08;100.00;99731.03;5064567;28;20110;-67
2023/08/28 10:09:18;;;;;;;3.20;1.92;;;;;;;17.28;99.76;99730.75;5063546;28;20384;-67
2023/08/28 10:11:45;;;;;;;5.25;2.20;;;;;;;17.42;96.57;99723.31;5062835;28;20029;-68
2023/08/28 10:14:14;;;;;;;4.75;2.10;;;;;;;17.48;94.77;99717.00;5063350;28;20372;-67
2023/08/28 10:16:57;;;;;;;3.42;2.47;;;;;;;17.69;93.87;99720.19;5063257;28;20045;-68
2023/08/28 10:19:31;;;;;;;3.10;2.20;;;;;;;17.66;90.80;99717.94;5062376;28;20071;-68
2023/08/28 10:21:57;;;;;;;3.65;2.28;;;;;;;17.82;91.34;99709.22;5062367;28;20112;-67
2023/08/28 10:24:24;;;;;;;2.92;1.85;;;;;;;17.99;88.93;99707.44;5062447;28;20060;-67
2023/08/28 10:26:50;;;;;;;;;;;;;;;18.26;88.41;99709.69;5063708;28;20545;-67
2023/08/28 10:29:18;;;;;;;2.80;2.15;;;;;;;18.39;86.29;99706.75;5064063;28;19909;-68
2023/08/28 10:31:45;;;;;;;3.10;1.92;;;;;;;18.53;84.77;99710.81;5061557;28;20041;-66
2023/08/28 10:34:11;;;;;;;2.72;1.70;;;;;;;18.46;82.10;99695.81;5053658;28;20041;-68
2023/08/28 10:36:38;;;;;;;2.65;1.67;;;;;;;18.57;80.78;99693.06;5053445;28;20036;-68
2023/08/28 10:39:04;;;;;;;3.77;1.80;;;;;;;18.70;80.66;99692.84;5053253;28;20045;-68
2023/08/28 10:41:31;;;;;;;4.28;1.58;;;;;;;18.90;79.55;99695.09;5053456;28;20295;-66
2023/08/28 10:44:01;;;;;;;2.08;1.70;;;;;;;18.90;79.95;99692.41;5053381;28;20072;-67
2023/08/28 10:46:28;;;;;;;2.50;1.50;;;;;;;18.77;77.42;99686.47;5053307;28;20552;-67
2023/08/28 10:48:58;;;;;;;2.83;1.80;;;;;;;18.79;76.93;99681.69;5053203;28;20037;-67
2023/08/28 10:51:36;;;;;;;2.97;1.52;;;;;;;18.99;72.78;99679.38;5053095;28;20476;-68
2023/08/28 10:54:09;;;;;;;3.60;1.80;;;;;;;18.87;73.23;99681.28;5053342;28;20480;-67
2023/08/28 10:56:36;;;;;;;3.50;1.63;;;;;;;18.99;74.74;99679.38;5053048;28;20048;-67
2023/08/28 10:59:23;;;;;;;1.60;1.40;;;;;;;19.12;73.70;99679.06;5052885;28;20049;-66
2023/08/28 11:01:52;;;;;;;1.85;1.38;;;;;;;18.86;69.37;99663.47;5051608;28;20094;-67
2023/08/28 11:04:18;;;;;;;2.78;1.33;;;;;;;18.77;71.17;99668.41;5053017;28;20041;-67
2023/08/28 11:06:44;;;;;;;3.50;1.45;;;;;;;18.96;71.60;99675.25;5052796;28;20495;-67
2023/08/28 11:09:28;;;;;;;2.90;1.70;;;;;;;19.15;69.40;99669.66;5052690;28;20119;-67
2023/08/28 11:12:03;;;;;;;1.88;1.17;;;;;;;19.33;66.72;99671.31;5051356;28;20037;-67
2023/08/28 11:14:38;;;;;;;2.17;1.13;;;;;;;19.57;65.15;99675.50;5065162;28;20036;-68
2023/08/28 11:17:10;;;;;;;1.90;1.00;;;;;;;19.69;64.19;99675.44;5072682;28;20103;-67
2023/08/28 11:19:54;;;;;;;2.25;1.50;;;;;;;19.78;63.42;99674.78;5072375;28;20040;-68
2023/08/28 11:22:36;;;;;;;3.08;1.30;;;;;;;19.87;64.11;99677.88;5072453;28;20028;-67
2023/08/28 11:25:04;;;;;;;1.38;1.10;;;;;;;19.80;61.85;99674.53;5072507;28;20040;-68
2023/08/28 11:27:53;;;;;;;1.63;1.30;;;;;;;19.79;62.47;99671.00;5072382;28;20040;-66
2023/08/28 11:30:21;;;;;;;2.65;1.30;;;;;;;19.60;60.56;99666.94;5071668;28;20040;-67
2023/08/28 11:32:52;;;;;;;2.40;1.35;;;;;;;19.66;61.39;99668.66;5071955;28;20733;-67
2023/08/28 11:35:19;;;;;;;1.30;1.20;;;;;;;19.65;62.75;99660.78;5072263;28;20024;-68
2023/08/28 11:37:55;;;;;;;3.15;1.40;;;;;;;19.53;63.19;99663.53;5072318;28;20123;-67
2023/08/28 11:40:23;;;;;;;1.65;1.30;;;;;;;19.39;64.39;99667.63;5071953;28;20036;-67
2023/08/28 11:42:49;;;;;;;1.95;1.13;;;;;;;19.39;64.30;99665.75;5072191;28;20043;-68
2023/08/28 11:45:22;;;;;;;2.70;1.10;;;;;;;19.46;62.89;99663.72;5072118;28;20068;-65
2023/08/28 11:47:48;;;;;;;3.40;1.10;;;;;;;19.72;63.53;99664.97;5072110;28;20081;-68
2023/08/28 11:50:13;;;;;;;2.47;1.10;;;;;;;19.90;64.19;99663.88;5071808;28;20040;-68
2023/08/28 11:52:39;;;;;;;3.45;1.42;;;;;;;19.98;64.25;99665.34;5071998;28;20036;-67
2023/08/28 11:55:06;;;;;;;1.50;1.08;;;;;;;19.92;62.29;99663.63;5072005;28;20048;-67
2023/08/28 11:57:33;;;;;;;1.27;1.17;;;;;;;19.77;62.34;99664.22;5072030;28;20106;-65
2023/08/28 12:00:00;;;;;;;2.75;1.17;;;;;;;19.91;60.72;99664.69;5071802;28;20033;-67
2023/08/28 12:02:26;;;;;;;3.70;1.38;;;;;;;19.85;63.25;99655.69;5071910;28;20033;-67
2023/08/28 12:04:52;;;;;;;2.22;1.25;;;;;;;19.63;64.47;99654.81;5071835;28;20118;-67
2023/08/28 12:07:18;;;;;;;1.55;0.90;;;;;;;19.77;62.43;99653.41;5071833;28;20502;-67
2023/08/28 12:09:46;;;;;;;2.27;0.93;;;;;;;19.81;59.16;99656.44;5071191;28;20514;-68
2023/08/28 12:12:16;;;;;;;0.95;0.90;;;;;;;19.70;60.68;99652.78;5060569;28;20041;-68
2023/08/28 12:14:46;;;;;;;1.45;1.20;;;;;;;19.45;62.70;99658.56;5060774;28;20040;-67
2023/08/28 12:17:22;;;;;;;2.03;1.20;;;;;;;19.52;62.91;99670.00;5060667;28;20033;-67
2023/08/28 12:19:53;;;;;;;1.40;1.00;;;;;;;19.28;64.19;99658.53;5061239;28;20028;-67
2023/08/28 12:22:21;;;;;;;2.20;1.05;;;;;;;19.17;64.38;99657.56;5060179;28;20494;-67
2023/08/28 12:24:49;;;;;;;3.00;1.33;;;;;;;19.27;65.82;99650.69;5060061;28;20025;-67
2023/08/28 12:27:16;;;;;;;7.38;1.30;;;;;;;19.26;64.84;99657.97;5059009;28;20037;-67
2023/08/28 12:29:41;;;;;;;2.60;1.30;;;;;;;19.22;66.40;99656.81;5061859;28;20025;-66
2023/08/28 12:32:17;;;;;;;3.15;1.40;;;;;;;19.19;66.83;99655.44;5061257;28;20373;-67
2023/08/28 12:34:44;;;;;;;3.15;1.40;;;;;;;19.12;65.05;99649.38;5060796;28;20368;-68
2023/08/28 12:37:11;;;;;;;2.08;1.58;;;;;;;18.97;64.70;99649.09;5060877;28;20029;-67
2023/08/28 12:39:48;;;;;;;2.30;1.30;;;;;;;18.69;65.54;99658.81;5061850;28;20029;-67
2023/08/28 12:42:14;;;;;;;;;;;;;;;18.75;67.31;99657.06;5059222;28;20535;-67
2023/08/28 12:44:43;;;;;;;2.30;1.27;;;;;;;18.78;66.52;99669.22;5064349;28;19913;-68
2023/08/28 12:47:13;;;;;;;3.10;1.40;;;;;;;18.78;68.40;99672.78;5064168;28;20087;-67
2023/08/28 12:49:40;;;;;;;2.55;1.50;;;;;;;18.74;69.63;99671.59;5064787;28;20060;-68
2023/08/28 12:52:07;;;;;;;2.22;1.30;;;;;;;18.90;70.33;99672.69;5065945;28;20106;-68
2023/08/28 12:54:33;;;;;;;1.73;1.45;;;;;;;18.91;70.59;99679.75;5073018;28;20566;-68
2023/08/28 12:56:59;;;;;;;1.52;1.30;;;;;;;18.82;69.55;99679.31;5075372;28;20048;-67
2023/08/28 12:59:25;;;;;;;3.25;1.33;;;;;;;18.93;68.01;99686.53;5063775;28;20470;-68
2023/08/28 13:01:51;;;;;;;2.20;1.33;;;;;;;18.90;68.95;99670.00;5055421;28;20037;-67
2023/08/28 13:04:17;;;;;;;1.70;1.52;;;;;;;18.93;71.03;99686.53;5055265;28;20065;-67
2023/08/28 13:06:43;;;;;;;1.60;1.50;;;;;;;18.92;69.91;99684.09;5055126;28;20045;-68
2023/08/28 13:09:08;;;;;;;2.38;1.50;;;;;;;18.83;69.68;99680.94;5054880;28;20074;-67
2023/08/28 13:11:34;;;;;;;2.60;1.52;;;;;;;18.85;70.73;99681.53;5055116;28;20036;-67
2023/08/28 13:14:00;;;;;;;3.33;1.35;;;;;;;18.85;71.77;99680.72;5055161;28;20033;-67
2023/08/28 13:16:30;;;;;;;1.85;1.60;;;;;;;18.88;72.22;99672.13;5054973;28;20037;-67
2023/08/28 13:18:55;;;;;;;3.08;1.48;;;;;;;18.92;73.15;99676.81;5054511;28;20186;-68
2023/08/28 13:21:21;;;;;;;2.15;1.40;;;;;;;18.91;70.63;99682.47;5054804;28;20103;-68
2023/08/28 13:23:47;;;;;;;2.67;1.45;;;;;;;18.98;71.48;99683.94;5054905;28;20029;-68
2023/08/28 13:26:12;;;;;;;3.55;1.33;;;;;;;18.92;71.17;99689.50;5054883;28;20047;-67
2023/08/28 13:28:38;;;;;;;2.30;1.30;;;;;;;19.04;70.97;99682.16;5054741;28;20400;-67
2023/08/28 13:31:03;;;;;;;1.70;1.30;;;;;;;18.94;66.45;99690.88;5054509;28;20031;-68
2023/08/28 13:33:29;;;;;;;2.83;1.17;;;;;;;18.92;66.69;99692.19;5054798;28;20041;-67
2023/08/28 13:35:55;;;;;;;1.35;1.20;;;;;;;18.85;70.25;99699.59;5054603;28;20044;-67
2023/08/28 13:38:21;;;;;;;2.25;1.27;;;;;;;18.94;70.78;99707.06;5054612;28;20391;-67
2023/08/28 13:40:47;;;;;;;2.13;1.15;;;;;;;18.84;66.40;99706.03;5054323;28;20033;-67
2023/08/28 13:43:12;;;;;;;2.03;1.35;;;;;;;18.85;66.13;99694.22;5054372;28;20043;-67
2023/08/28 13:45:37;;;;;;;2.38;1.25;;;;;;;18.80;66.98;99696.81;5054372;28;20041;-67
2023/08/28 13:48:03;;;;;;;2.75;1.40;;;;;;;18.74;67.41;99698.56;5054404;28;20120;-67
2023/08/28 13:50:29;;;;;;;1.38;1.20;;;;;;;18.80;66.57;99699.50;5054078;28;20311;-66
2023/08/28 13:52:54;;;;;;;1.50;1.23;;;;;;;18.64;67.15;99699.16;5054013;28;20037;-67
2023/08/28 13:55:20;;;;;;;3.22;1.17;;;;;;;18.65;66.64;99690.03;5053983;28;20472;-67
2023/08/28 13:57:47;;;;;;;2.60;1.38;;;;;;;18.69;68.14;99688.50;5054213;28;20041;-67
2023/08/28 14:00:14;;;;;;;2.35;1.30;;;;;;;18.72;66.72;99689.09;5054033;28;20041;-67
2023/08/28 14:02:42;;;;;;;1.58;1.40;;;;;;;18.65;68.05;99676.53;5054120;28;20090;-67
2023/08/28 14:05:09;;;;;;;1.73;1.02;;;;;;;18.65;69.23;99671.13;5053964;28;20032;-67
2023/08/28 14:07:35;;;;;;;1.55;1.45;;;;;;;18.67;69.03;99669.03;5053987;28;20110;-67
2023/08/28 14:10:00;;;;;;;1.20;1.00;;;;;;;18.67;68.34;99670.94;5053779;28;20033;-67
2023/08/28 14:12:25;;;;;;;1.77;1.15;;;;;;;18.72;68.75;99662.13;5053904;28;20407;-67
2023/08/28 14:14:51;;;;;;;1.20;0.90;;;;;;;18.75;66.90;99662.44;5053869;28;20492;-67
2023/08/28 14:17:17;;;;;;;1.52;1.27;;;;;;;18.78;67.17;99661.13;5053800;28;20045;-68
2023/08/28 14:19:43;;;;;;;2.43;1.27;;;;;;;18.79;65.82;99660.91;5065666;28;20048;-69
2023/08/28 14:22:08;;;;;;;2.10;1.15;;;;;;;18.74;67.36;99657.28;5073696;28;20033;-68
2023/08/28 14:24:34;;;;;;;2.30;1.13;;;;;;;18.76;68.22;99663.25;5073856;28;20040;-68
2023/08/28 14:26:59;;;;;;;2.50;1.23;;;;;;;18.80;67.52;99667.94;5073663;28;20124;-66
2023/08/28 14:29:25;;;;;;;2.08;1.38;;;;;;;18.79;68.17;99670.88;5073381;28;20040;-67
2023/08/28 14:31:51;;;;;;;1.30;1.20;;;;;;;18.79;67.50;99670.88;5073501;28;20041;-66
2023/08/28 14:34:16;;;;;;;1.73;1.30;;;;;;;18.81;67.51;99671.47;5073586;28;20044;-67
2023/08/28 14:36:42;;;;;;;1.75;1.30;;;;;;;18.73;68.39;99671.84;5073346;28;20029;-67
2023/08/28 14:39:07;;;;;;;1.83;1.60;;;;;;;18.65;70.24;99671.13;5073141;28;20559;-66
2023/08/28 14:41:33;;;;;;;1.52;1.40;;;;;;;18.72;70.65;99672.91;5073356;28;20028;-66
2023/08/28 14:43:58;;;;;;;1.88;1.65;;;;;;;18.68;72.04;99667.16;5073298;28;20044;-67
2023/08/28 14:46:23;;;;;;;2.17;1.40;;;;;;;18.72;73.05;99662.13;5073218;28;20123;-66
2023/08/28 14:48:49;;;;;;;3.25;1.55;;;;;;;18.66;74.32;99666.56;5073151;28;20245;-67
2023/08/28 14:51:15;;;;;;;2.78;1.80;;;;;;;18.63;73.15;99670.53;5072855;28;20048;-68
2023/08/28 14:53:41;;;;;;;2.83;1.75;;;;;;;18.59;72.81;99663.19;5073136;28;20035;-66
2023/08/28 14:56:06;;;;;;;2.15;1.70;;;;;;;18.48;71.97;99667.56;5072974;28;20036;-65
2023/08/28 14:58:31;;;;;;;2.28;1.40;;;;;;;18.43;72.88;99660.16;5073343;28;20644;-66
2023/08/28 15:00:57;;;;;;;3.22;1.70;;;;;;;18.51;71.69;99664.34;5072718;28;20041;-67
2023/08/28 15:03:24;;;;;;;2.75;1.27;;;;;;;18.47;71.49;99668.63;5072976;28;20044;-66
2023/08/28 15:05:52;;;;;;;3.72;1.50;;;;;;;18.45;70.70;99662.63;5072012;28;20052;-67
2023/08/28 15:08:21;;;;;;;2.38;1.23;;;;;;;18.46;71.28;99664.28;5073166;28;20400;-66
2023/08/28 15:10:49;;;;;;;3.85;1.30;;;;;;;18.45;69.93;99657.22;5072347;28;20113;-68
2023/08/28 15:13:15;;;;;;;1.55;1.20;;;;;;;18.44;72.00;99656.41;5063958;28;20044;-67
2023/08/28 15:15:48;;;;;;;1.50;1.35;;;;;;;18.34;70.47;99666.19;5061220;28;20416;-68
2023/08/28 15:18:14;;;;;;;2.28;1.50;;;;;;;18.34;70.40;99661.59;5062523;28;20056;-67
2023/08/28 15:20:40;;;;;;;2.55;1.30;;;;;;;18.29;71.42;99668.75;5060950;28;20105;-67
2023/08/28 15:23:07;;;;;;;2.40;1.20;;;;;;;18.29;73.92;99666.88;5061183;28;20484;-66
2023/08/28 15:25:32;;;;;;;1.65;1.40;;;;;;;18.27;70.42;99666.31;5062273;28;20556;-66
2023/08/28 15:27:58;;;;;;;2.38;1.02;;;;;;;18.36;71.80;99658.66;5065614;28;20040;-67
2023/08/28 15:30:23;;;;;;;1.17;1.08;;;;;;;18.41;71.88;99661.47;5072170;28;20067;-68
2023/08/28 15:32:48;;;;;;;1.17;1.08;;;;;;;18.40;71.33;99659.84;5072384;28;20045;-66
2023/08/28 15:35:14;;;;;;;1.45;1.10;;;;;;;18.38;70.56;99668.16;5072258;28;20044;-66
2023/08/28 15:37:39;;;;;;;2.13;1.10;;;;;;;18.35;71.47;99678.59;5072366;28;20041;-65
2023/08/28 15:40:06;;;;;;;1.38;1.20;;;;;;;18.32;71.47;99670.97;5072010;28;20040;-66
2023/08/28 15:42:31;;;;;;;1.80;1.02;;;;;;;18.35;72.96;99670.50;5072312;28;20036;-67
2023/08/28 15:44:58;;;;;;;2.85;1.40;;;;;;;18.27;71.74;99676.28;5072161;28;20040;-67
2023/08/28 15:47:23;;;;;;;1.95;1.13;;;;;;;18.21;72.51;99672.66;5072148;28;20033;-69
2023/08/28 15:49:49;;;;;;;1.70;1.40;;;;;;;18.20;73.17;99667.50;5071851;28;20411;-66